createdAt,value
2019-03-05T00:03:18.672Z,4.14
2019-03-05T00:08:14.678Z,4.17
2019-03-05T00:13:10.845Z,4.11
2019-03-05T00:18:06.894Z,4.06
2019-03-05T00:23:02.735Z,4.15
2019-03-05T00:28:08.370Z,4.02
2019-03-05T00:33:23.220Z,3.97
2019-03-05T00:39:05.506Z,3.85
2019-03-05T00:44:25.285Z,4.01
2019-03-05T00:49:48.802Z,3.97
2019-03-05T00:55:46.480Z,3.97
2019-03-05T01:01:38.137Z,4.03
2019-03-05T01:06:34.127Z,3.79
2019-03-05T01:11:30.281Z,3.89
2019-03-05T01:16:30.660Z,3.95
2019-03-05T01:21:26.930Z,3.93
2019-03-05T01:26:23.876Z,3.77
2019-03-05T01:31:51.373Z,3.66
2019-03-05T01:36:51.015Z,3.90
2019-03-05T01:41:47.750Z,4.04
2019-03-05T01:46:43.516Z,4.32
2019-03-05T01:51:43.574Z,4.55
2019-03-05T01:56:50.366Z,4.61
2019-03-05T02:01:45.477Z,4.57
2019-03-05T02:06:41.581Z,4.57
2019-03-05T02:11:38.150Z,4.75
2019-03-05T02:16:34.601Z,4.87
2019-03-05T02:21:31.376Z,4.81
2019-03-05T02:27:36.803Z,4.81
2019-03-05T02:33:14.230Z,4.81
2019-03-05T02:39:01.270Z,4.93
2019-03-05T02:44:45.490Z,4.89
2019-03-05T02:50:45.245Z,4.89
2019-03-05T02:56:26.148Z,4.93
2019-03-05T03:01:42.639Z,4.87
2019-03-05T03:06:39.457Z,4.74
2019-03-05T03:11:35.704Z,4.57
2019-03-05T03:16:32.679Z,4.43
2019-03-05T03:21:29.440Z,4.34
2019-03-05T03:26:25.292Z,4.28
2019-03-05T03:31:21.326Z,4.28
2019-03-05T03:36:17.268Z,4.37
2019-03-05T03:41:14.197Z,4.30
2019-03-05T03:46:10.008Z,4.37
2019-03-05T03:51:05.910Z,4.19
2019-03-05T03:56:02.157Z,4.08
2019-03-05T04:00:59.995Z,4.06
2019-03-05T04:05:58.666Z,3.95
2019-03-05T04:10:56.516Z,4.14
2019-03-05T04:15:52.395Z,4.33
2019-03-05T04:20:51.360Z,4.19
2019-03-05T04:25:47.208Z,4.11
2019-03-05T04:30:43.120Z,4.17
2019-03-05T04:35:44.248Z,4.17
2019-03-05T04:40:40.573Z,4.25
2019-03-05T04:45:46.313Z,4.14
2019-03-05T04:50:49.858Z,4.17
2019-03-05T04:55:45.713Z,4.04
2019-03-05T05:00:43.984Z,4.09
2019-03-05T05:05:39.795Z,4.10
2019-03-05T05:10:36.024Z,4.03
2019-03-05T05:15:35.828Z,4.09
2019-03-05T05:20:32.059Z,4.10
2019-03-05T05:25:28.281Z,4.16
2019-03-05T05:30:38.611Z,4.04
2019-03-05T05:35:36.287Z,4.11
2019-03-05T05:40:40.638Z,4.08
2019-03-05T05:45:47.404Z,4.26
2019-03-05T05:50:43.324Z,4.15
2019-03-05T05:55:45.260Z,4.00
2019-03-05T06:00:46.912Z,3.99
2019-03-05T06:05:42.791Z,4.05
2019-03-05T06:10:38.763Z,4.02
2019-03-05T06:15:40.850Z,4.05
2019-03-05T06:20:42.806Z,4.00
2019-03-05T06:25:41.324Z,3.92
2019-03-05T06:30:55.517Z,3.81
2019-03-05T07:22:13.135Z,4.59
2019-03-05T07:27:11.681Z,4.69
2019-03-05T07:32:10.812Z,4.92
2019-03-05T07:37:10.663Z,5.07
2019-03-05T07:42:09.821Z,5.18
2019-03-05T07:47:08.667Z,5.38
2019-03-05T07:52:04.811Z,5.55
2019-03-05T07:57:00.793Z,5.94
2019-03-05T08:01:58.925Z,6.23
2019-03-05T08:06:54.807Z,6.58
2019-03-05T08:11:51.221Z,6.99
2019-03-05T08:16:47.630Z,7.29
2019-03-05T08:21:58.349Z,7.83
2019-03-05T08:26:54.657Z,8.09
2019-03-05T08:31:54.368Z,8.15
2019-03-05T08:36:50.651Z,8.16
2019-03-05T08:41:46.511Z,8.34
2019-03-05T08:46:47.558Z,8.31
2019-03-05T08:51:46.799Z,8.63
2019-03-05T08:56:42.652Z,8.72
2019-03-05T09:01:39.080Z,9.18
2019-03-05T09:06:35.157Z,9.22
2019-03-05T09:11:32.448Z,9.21
2019-03-05T09:16:28.735Z,9.02
2019-03-05T09:21:24.756Z,9.51
2019-03-05T09:26:21.360Z,10.18
2019-03-05T09:31:17.213Z,10.27
2019-03-05T09:36:13.329Z,10.81
2019-03-05T09:41:10.161Z,11.11
2019-03-05T09:46:06.755Z,10.78
2019-03-05T09:51:10.114Z,10.80
2019-03-05T09:56:12.382Z,10.86
2019-03-05T10:01:14.102Z,10.73
2019-03-05T10:06:17.281Z,11.15
2019-03-05T10:11:14.098Z,11.34
2019-03-05T10:16:10.033Z,11.46
2019-03-05T10:21:07.020Z,11.52
2019-03-05T10:26:02.895Z,11.51
2019-03-05T10:30:58.688Z,11.81
2019-03-05T10:35:54.639Z,12.20
2019-03-05T10:40:51.640Z,10.99
2019-03-05T10:45:48.389Z,10.51
2019-03-05T10:50:44.586Z,10.05
2019-03-05T10:55:41.108Z,9.84
2019-03-05T11:00:40.967Z,10.53
2019-03-05T11:05:39.981Z,11.05
2019-03-05T11:10:36.580Z,11.23
2019-03-05T11:15:33.346Z,10.93
2019-03-05T11:20:29.635Z,11.05
2019-03-05T11:25:25.848Z,11.07
2019-03-05T11:30:35.314Z,11.06
2019-03-05T11:35:24.978Z,11.27
2019-03-05T11:40:21.541Z,11.23
2019-03-05T11:45:22.353Z,11.31
2019-03-05T11:50:18.955Z,11.49
2019-03-05T11:55:16.924Z,11.19
2019-03-05T12:00:25.265Z,11.61
2019-03-05T12:05:21.296Z,11.74
2019-03-05T12:10:19.935Z,11.66
2019-03-05T12:15:17.289Z,10.98
2019-03-05T12:20:14.843Z,10.45
2019-03-05T12:25:14.357Z,10.21
2019-03-05T12:30:14.607Z,10.24
2019-03-05T12:35:11.119Z,10.40
2019-03-05T12:40:08.554Z,10.40
2019-03-05T12:45:04.956Z,10.49
2019-03-05T12:50:00.949Z,10.80
2019-03-05T12:54:56.936Z,10.80
2019-03-05T12:59:52.983Z,10.89
2019-03-05T13:04:48.855Z,11.33
2019-03-05T13:09:46.927Z,11.80
2019-03-05T13:14:43.870Z,11.59
2019-03-05T13:19:44.355Z,11.33
2019-03-05T13:24:40.437Z,11.12
2019-03-05T13:29:36.583Z,10.78
2019-03-05T13:34:32.438Z,10.87
2019-03-05T13:39:29.017Z,10.81
2019-03-05T13:44:37.707Z,10.88
2019-03-05T13:50:31.510Z,10.60
2019-03-05T13:56:29.866Z,10.58
2019-03-05T14:01:28.393Z,10.72
2019-03-05T14:07:06.934Z,10.66
2019-03-05T14:12:02.793Z,10.65
2019-03-05T14:17:10.147Z,10.75
2019-03-05T14:22:09.058Z,11.04
2019-03-05T14:27:04.965Z,11.20
2019-03-05T14:32:00.821Z,11.26
2019-03-05T14:36:56.838Z,11.14
2019-03-05T14:41:52.779Z,11.06
2019-03-05T14:46:55.750Z,10.82
2019-03-05T14:51:51.601Z,10.89
2019-03-05T14:56:47.537Z,10.90
2019-03-05T15:01:43.523Z,10.70
2019-03-05T15:06:39.358Z,10.71
2019-03-05T15:11:35.213Z,10.71
2019-03-05T15:16:30.950Z,10.68
2019-03-05T15:21:27.280Z,10.66
2019-03-05T15:26:24.680Z,10.81
2019-03-05T15:31:20.410Z,10.90
2019-03-05T15:36:23.717Z,10.98
2019-03-05T15:41:13.818Z,10.98
2019-03-05T15:46:09.797Z,10.99
2019-03-05T15:51:05.795Z,11.05
2019-03-05T15:56:02.817Z,11.14
2019-03-05T16:00:58.854Z,11.01
2019-03-05T16:05:57.785Z,10.71
2019-03-05T16:10:54.690Z,10.62
2019-03-05T16:41:09.296Z,10.27
2019-03-05T16:47:34.653Z,10.21
2019-03-05T17:33:18.199Z,9.33
2019-03-05T17:38:59.358Z,9.27
2019-03-05T18:03:42.028Z,9.47
2019-03-05T18:28:07.870Z,9.31
2019-03-05T18:33:03.751Z,9.29
2019-03-05T18:37:59.576Z,9.26
2019-03-05T18:42:55.545Z,9.36
2019-03-05T18:47:51.586Z,9.27
2019-03-05T18:52:49.159Z,9.18
2019-03-05T18:57:51.704Z,9.00
2019-03-05T19:02:44.524Z,8.82
2019-03-05T19:07:54.681Z,8.65
2019-03-05T19:13:04.751Z,8.53
2019-03-05T19:18:00.588Z,8.43
2019-03-05T19:23:00.714Z,8.37
2019-03-05T19:28:08.524Z,8.34
2019-03-05T19:33:08.281Z,8.30
2019-03-05T19:38:04.603Z,8.33
2019-03-05T19:43:01.852Z,8.37
2019-03-05T19:47:58.095Z,8.43
2019-03-05T19:52:54.714Z,8.45
2019-03-05T19:57:55.070Z,8.35
2019-03-05T20:02:54.964Z,8.37
2019-03-05T20:07:51.322Z,8.32
2019-03-05T20:12:49.442Z,8.39
2019-03-05T20:18:10.577Z,8.44
2019-03-05T20:23:12.702Z,8.43
2019-03-05T20:28:09.998Z,8.34
2019-03-05T20:33:06.947Z,8.30
2019-03-05T20:38:04.234Z,8.28
2019-03-05T20:49:12.982Z,8.24
2019-03-05T20:54:09.155Z,8.21
2019-03-05T20:59:05.335Z,8.18
2019-03-05T21:04:01.338Z,8.13
2019-03-05T21:08:58.285Z,8.10
2019-03-05T21:13:58.609Z,8.07
2019-03-05T21:18:54.560Z,8.05
2019-03-05T21:23:50.951Z,8.02
2019-03-05T21:28:48.011Z,7.98
2019-03-05T21:33:44.125Z,7.93
2019-03-05T21:38:40.156Z,7.93
2019-03-05T21:43:36.120Z,7.85
2019-03-05T21:48:31.986Z,7.80
2019-03-05T21:53:27.891Z,7.71
2019-03-05T21:58:24.125Z,7.67
2019-03-05T22:03:20.079Z,7.37
2019-03-05T22:08:15.892Z,7.08
2019-03-05T22:13:11.747Z,6.92
2019-03-05T22:18:07.618Z,6.62
2019-03-05T22:23:03.689Z,6.56
2019-03-05T22:27:59.653Z,6.48
2019-03-05T22:32:55.530Z,6.48
2019-03-05T22:37:51.511Z,6.50
2019-03-05T22:42:47.465Z,6.57
2019-03-05T22:47:43.346Z,6.40
2019-03-05T22:52:39.371Z,6.27
2019-03-05T22:57:35.178Z,6.13
2019-03-05T23:27:35.583Z,5.29
2019-03-05T23:32:31.648Z,5.32
2019-03-05T23:37:27.495Z,5.38
2019-03-05T23:42:24.670Z,5.06
2019-03-05T23:47:20.765Z,5.14
2019-03-05T23:52:17.095Z,4.97
2019-03-05T23:57:13.294Z,4.91
